sensor_id;sensor_type;location;lat;lon;timestamp;temperature;humidity
66582;SHT31;53438;48.898;2.308;2023-01-10T00:00:44;7.06;76.02
66582;SHT31;53438;48.898;2.308;2023-01-10T00:03:10;7.17;75.27
66582;SHT31;53438;48.898;2.308;2023-01-10T00:05:37;7.26;75.34
66582;SHT31;53438;48.898;2.308;2023-01-10T00:08:04;7.27;74.93
66582;SHT31;53438;48.898;2.308;2023-01-10T00:10:30;7.07;75.56
66582;SHT31;53438;48.898;2.308;2023-01-10T00:12:56;7.16;75.02
66582;SHT31;53438;48.898;2.308;2023-01-10T00:15:39;7.15;75.28
66582;SHT31;53438;48.898;2.308;2023-01-10T00:18:05;7.03;75.63
66582;SHT31;53438;48.898;2.308;2023-01-10T00:20:31;7.20;75.10
66582;SHT31;53438;48.898;2.308;2023-01-10T00:22:57;7.50;74.32
66582;SHT31;53438;48.898;2.308;2023-01-10T00:25:22;7.24;74.82
66582;SHT31;53438;48.898;2.308;2023-01-10T00:27:48;7.43;74.18
66582;SHT31;53438;48.898;2.308;2023-01-10T00:30:18;7.46;74.09
66582;SHT31;53438;48.898;2.308;2023-01-10T00:32:43;7.46;73.79
66582;SHT31;53438;48.898;2.308;2023-01-10T00:35:10;7.54;73.55
66582;SHT31;53438;48.898;2.308;2023-01-10T00:37:36;7.67;73.46
66582;SHT31;53438;48.898;2.308;2023-01-10T00:40:02;7.57;73.26
66582;SHT31;53438;48.898;2.308;2023-01-10T00:42:28;7.43;73.90
66582;SHT31;53438;48.898;2.308;2023-01-10T00:45:12;7.36;74.41
66582;SHT31;53438;48.898;2.308;2023-01-10T00:47:37;7.20;74.54
66582;SHT31;53438;48.898;2.308;2023-01-10T00:50:03;7.28;74.35
66582;SHT31;53438;48.898;2.308;2023-01-10T00:52:32;7.20;75.24
66582;SHT31;53438;48.898;2.308;2023-01-10T00:54:58;7.40;74.66
66582;SHT31;53438;48.898;2.308;2023-01-10T00:57:23;7.37;74.65
66582;SHT31;53438;48.898;2.308;2023-01-10T00:59:48;7.67;73.88
66582;SHT31;53438;48.898;2.308;2023-01-10T04:01:10;7.23;76.30
66582;SHT31;53438;48.898;2.308;2023-01-10T04:03:36;7.16;76.55
66582;SHT31;53438;48.898;2.308;2023-01-10T04:06:02;7.16;76.81
66582;SHT31;53438;48.898;2.308;2023-01-10T04:08:27;7.19;76.78
66582;SHT31;53438;48.898;2.308;2023-01-10T04:10:53;7.27;76.65
66582;SHT31;53438;48.898;2.308;2023-01-10T04:13:18;7.31;76.56
66582;SHT31;53438;48.898;2.308;2023-01-10T04:15:43;7.36;76.45
66582;SHT31;53438;48.898;2.308;2023-01-10T04:18:09;7.36;76.43
66582;SHT31;53438;48.898;2.308;2023-01-10T04:20:34;7.44;76.11
66582;SHT31;53438;48.898;2.308;2023-01-10T04:22:59;7.37;76.48
66582;SHT31;53438;48.898;2.308;2023-01-10T04:25:25;7.34;76.58
66582;SHT31;53438;48.898;2.308;2023-01-10T04:27:50;7.37;76.55
66582;SHT31;53438;48.898;2.308;2023-01-10T04:30:17;7.38;76.61
66582;SHT31;53438;48.898;2.308;2023-01-10T04:32:43;7.31;76.84
66582;SHT31;53438;48.898;2.308;2023-01-10T04:35:09;7.26;77.07
66582;SHT31;53438;48.898;2.308;2023-01-10T04:37:34;7.36;76.71
66582;SHT31;53438;48.898;2.308;2023-01-10T04:39:59;7.26;77.02
66582;SHT31;53438;48.898;2.308;2023-01-10T04:42:25;7.27;77.05
66582;SHT31;53438;48.898;2.308;2023-01-10T04:44:50;7.26;77.17
66582;SHT31;53438;48.898;2.308;2023-01-10T04:47:16;7.24;77.11
66582;SHT31;53438;48.898;2.308;2023-01-10T04:49:41;7.36;76.61
66582;SHT31;53438;48.898;2.308;2023-01-10T04:52:06;7.34;76.63
66582;SHT31;53438;48.898;2.308;2023-01-10T04:54:32;7.42;76.46
66582;SHT31;53438;48.898;2.308;2023-01-10T04:56:57;7.38;76.73
66582;SHT31;53438;48.898;2.308;2023-01-10T04:59:22;7.33;76.98
66582;SHT31;53438;48.898;2.308;2023-01-10T05:01:48;7.34;76.91
66582;SHT31;53438;48.898;2.308;2023-01-10T05:04:13;7.38;77.02
66582;SHT31;53438;48.898;2.308;2023-01-10T05:06:39;7.37;77.14
66582;SHT31;53438;48.898;2.308;2023-01-10T05:09:06;7.31;77.27
66582;SHT31;53438;48.898;2.308;2023-01-10T05:11:31;7.34;77.48
66582;SHT31;53438;48.898;2.308;2023-01-10T05:13:56;7.43;77.10
66582;SHT31;53438;48.898;2.308;2023-01-10T05:16:22;7.40;77.06
66582;SHT31;53438;48.898;2.308;2023-01-10T05:18:49;7.36;77.00
66582;SHT31;53438;48.898;2.308;2023-01-10T05:21:15;7.37;77.17
66582;SHT31;53438;48.898;2.308;2023-01-10T05:23:40;7.42;77.13
66582;SHT31;53438;48.898;2.308;2023-01-10T05:26:08;7.51;76.78
66582;SHT31;53438;48.898;2.308;2023-01-10T05:28:34;7.43;77.11
66582;SHT31;53438;48.898;2.308;2023-01-10T05:30:59;7.30;77.49
66582;SHT31;53438;48.898;2.308;2023-01-10T05:33:24;7.34;77.45
66582;SHT31;53438;48.898;2.308;2023-01-10T05:35:50;7.43;77.28
66582;SHT31;53438;48.898;2.308;2023-01-10T05:38:15;7.34;77.43
66582;SHT31;53438;48.898;2.308;2023-01-10T05:40:40;7.43;77.26
66582;SHT31;53438;48.898;2.308;2023-01-10T05:43:06;7.40;77.37
66582;SHT31;53438;48.898;2.308;2023-01-10T05:45:31;7.44;77.22
66582;SHT31;53438;48.898;2.308;2023-01-10T05:47:56;7.46;77.14
66582;SHT31;53438;48.898;2.308;2023-01-10T05:50:22;7.50;77.14
66582;SHT31;53438;48.898;2.308;2023-01-10T05:52:47;7.47;77.36
66582;SHT31;53438;48.898;2.308;2023-01-10T05:55:12;7.54;77.10
66582;SHT31;53438;48.898;2.308;2023-01-10T05:57:38;7.61;76.81
66582;SHT31;53438;48.898;2.308;2023-01-10T06:00:04;7.60;76.83
66582;SHT31;53438;48.898;2.308;2023-01-10T06:02:31;7.56;76.99
66582;SHT31;53438;48.898;2.308;2023-01-10T06:04:56;7.60;76.96
66582;SHT31;53438;48.898;2.308;2023-01-10T06:07:22;7.51;77.20
66582;SHT31;53438;48.898;2.308;2023-01-10T06:09:47;7.57;77.12
66582;SHT31;53438;48.898;2.308;2023-01-10T06:12:15;7.60;77.09
66582;SHT31;53438;48.898;2.308;2023-01-10T06:14:42;7.63;77.09
66582;SHT31;53438;48.898;2.308;2023-01-10T06:17:08;7.67;76.81
66582;SHT31;53438;48.898;2.308;2023-01-10T06:19:34;7.64;76.89
66582;SHT31;53438;48.898;2.308;2023-01-10T06:21:59;7.75;76.61
66582;SHT31;53438;48.898;2.308;2023-01-10T06:24:25;7.74;76.67
66582;SHT31;53438;48.898;2.308;2023-01-10T06:26:50;7.68;76.84
66582;SHT31;53438;48.898;2.308;2023-01-10T06:29:15;7.64;77.04
66582;SHT31;53438;48.898;2.308;2023-01-10T06:31:41;7.53;77.29
66582;SHT31;53438;48.898;2.308;2023-01-10T06:34:06;7.51;77.35
66582;SHT31;53438;48.898;2.308;2023-01-10T06:36:31;7.64;77.11
66582;SHT31;53438;48.898;2.308;2023-01-10T06:38:57;7.38;77.65
66582;SHT31;53438;48.898;2.308;2023-01-10T06:41:22;7.47;77.54
66582;SHT31;53438;48.898;2.308;2023-01-10T06:43:48;7.54;77.22
66582;SHT31;53438;48.898;2.308;2023-01-10T06:46:15;7.63;76.73
66582;SHT31;53438;48.898;2.308;2023-01-10T06:48:42;7.56;77.13
66582;SHT31;53438;48.898;2.308;2023-01-10T06:51:09;7.57;77.15
66582;SHT31;53438;48.898;2.308;2023-01-10T06:53:35;7.53;77.33
66582;SHT31;53438;48.898;2.308;2023-01-10T06:56:00;7.53;77.46
66582;SHT31;53438;48.898;2.308;2023-01-10T06:58:27;7.50;77.60
66582;SHT31;53438;48.898;2.308;2023-01-10T07:00:52;7.46;77.79
66582;SHT31;53438;48.898;2.308;2023-01-10T07:03:18;7.48;77.70
66582;SHT31;53438;48.898;2.308;2023-01-10T07:05:43;7.46;77.89
66582;SHT31;53438;48.898;2.308;2023-01-10T07:08:09;7.61;77.58
66582;SHT31;53438;48.898;2.308;2023-01-10T07:10:34;7.60;77.43
66582;SHT31;53438;48.898;2.308;2023-01-10T07:12:59;7.63;77.28
66582;SHT31;53438;48.898;2.308;2023-01-10T07:15:26;7.58;77.22
66582;SHT31;53438;48.898;2.308;2023-01-10T07:17:51;7.56;77.53
66582;SHT31;53438;48.898;2.308;2023-01-10T07:20:17;7.63;77.49
66582;SHT31;53438;48.898;2.308;2023-01-10T07:22:43;7.48;77.91
66582;SHT31;53438;48.898;2.308;2023-01-10T07:25:08;7.58;77.55
66582;SHT31;53438;48.898;2.308;2023-01-10T07:27:34;7.63;77.50
66582;SHT31;53438;48.898;2.308;2023-01-10T07:29:59;7.66;77.45
66582;SHT31;53438;48.898;2.308;2023-01-10T07:32:25;7.63;77.50
66582;SHT31;53438;48.898;2.308;2023-01-10T07:34:51;7.42;77.94
66582;SHT31;53438;48.898;2.308;2023-01-10T07:37:16;7.57;77.79
66582;SHT31;53438;48.898;2.308;2023-01-10T07:39:42;7.60;77.79
66582;SHT31;53438;48.898;2.308;2023-01-10T07:42:10;7.73;77.54
66582;SHT31;53438;48.898;2.308;2023-01-10T07:44:35;7.68;77.60
66582;SHT31;53438;48.898;2.308;2023-01-10T07:47:01;7.66;77.51
66582;SHT31;53438;48.898;2.308;2023-01-10T07:49:26;7.68;77.36
66582;SHT31;53438;48.898;2.308;2023-01-10T07:51:52;7.53;78.03
66582;SHT31;53438;48.898;2.308;2023-01-10T07:54:17;7.58;77.92
66582;SHT31;53438;48.898;2.308;2023-01-10T07:56:43;7.63;77.90
66582;SHT31;53438;48.898;2.308;2023-01-10T07:59:08;7.58;77.96
66582;SHT31;53438;48.898;2.308;2023-01-10T08:01:33;7.64;77.83
66582;SHT31;53438;48.898;2.308;2023-01-10T08:03:59;7.61;77.90
66582;SHT31;53438;48.898;2.308;2023-01-10T08:06:24;7.58;78.16
66582;SHT31;53438;48.898;2.308;2023-01-10T08:08:50;7.57;78.18
66582;SHT31;53438;48.898;2.308;2023-01-10T08:11:15;7.58;78.19
66582;SHT31;53438;48.898;2.308;2023-01-10T08:13:40;7.57;78.25
66582;SHT31;53438;48.898;2.308;2023-01-10T08:16:06;7.56;78.16
66582;SHT31;53438;48.898;2.308;2023-01-10T08:18:32;7.64;77.99
66582;SHT31;53438;48.898;2.308;2023-01-10T08:20:58;7.66;78.06
66582;SHT31;53438;48.898;2.308;2023-01-10T08:23:25;7.78;77.57
66582;SHT31;53438;48.898;2.308;2023-01-10T08:25:51;7.71;77.84
66582;SHT31;53438;48.898;2.308;2023-01-10T08:28:17;7.73;78.00
66582;SHT31;53438;48.898;2.308;2023-01-10T08:30:42;7.75;77.88
66582;SHT31;53438;48.898;2.308;2023-01-10T08:33:09;7.75;77.99
66582;SHT31;53438;48.898;2.308;2023-01-10T08:35:39;7.74;78.22
66582;SHT31;53438;48.898;2.308;2023-01-10T08:38:05;7.79;77.95
66582;SHT31;53438;48.898;2.308;2023-01-10T08:40:31;7.77;78.11
66582;SHT31;53438;48.898;2.308;2023-01-10T08:43:01;7.84;77.99
66582;SHT31;53438;48.898;2.308;2023-01-10T08:45:27;7.84;78.00
66582;SHT31;53438;48.898;2.308;2023-01-10T08:47:53;7.82;78.09
66582;SHT31;53438;48.898;2.308;2023-01-10T08:50:19;7.78;78.20
66582;SHT31;53438;48.898;2.308;2023-01-10T08:52:44;7.79;78.27
66582;SHT31;53438;48.898;2.308;2023-01-10T08:55:10;7.84;78.02
66582;SHT31;53438;48.898;2.308;2023-01-10T08:57:35;7.88;78.12
66582;SHT31;53438;48.898;2.308;2023-01-10T09:00:01;7.89;77.83
66582;SHT31;53438;48.898;2.308;2023-01-10T09:02:26;7.92;77.71
66582;SHT31;53438;48.898;2.308;2023-01-10T09:04:52;7.85;78.25
66582;SHT31;53438;48.898;2.308;2023-01-10T09:07:17;7.84;78.45
66582;SHT31;53438;48.898;2.308;2023-01-10T09:09:42;7.75;78.81
66582;SHT31;53438;48.898;2.308;2023-01-10T09:12:08;7.74;79.19
66582;SHT31;53438;48.898;2.308;2023-01-10T09:14:53;7.92;78.53
66582;SHT31;53438;48.898;2.308;2023-01-10T09:17:19;7.88;79.24
66582;SHT31;53438;48.898;2.308;2023-01-10T09:19:44;7.99;79.42
66582;SHT31;53438;48.898;2.308;2023-01-10T09:22:09;8.05;79.38
66582;SHT31;53438;48.898;2.308;2023-01-10T09:24:35;7.92;79.66
66582;SHT31;53438;48.898;2.308;2023-01-10T09:27:02;7.91;79.69
66582;SHT31;53438;48.898;2.308;2023-01-10T09:29:27;8.02;79.48
66582;SHT31;53438;48.898;2.308;2023-01-10T09:31:53;7.98;79.66
66582;SHT31;53438;48.898;2.308;2023-01-10T09:34:18;8.02;79.65
66582;SHT31;53438;48.898;2.308;2023-01-10T09:36:43;7.96;80.42
66582;SHT31;53438;48.898;2.308;2023-01-10T09:39:09;7.91;80.78
66582;SHT31;53438;48.898;2.308;2023-01-10T09:47:23;7.95;81.15
66582;SHT31;53438;48.898;2.308;2023-01-10T09:52:27;8.02;80.98
66582;SHT31;53438;48.898;2.308;2023-01-10T09:54:55;8.06;81.00
66582;SHT31;53438;48.898;2.308;2023-01-10T09:57:22;8.05;81.13
66582;SHT31;53438;48.898;2.308;2023-01-10T09:59:50;7.95;81.78
66582;SHT31;53438;48.898;2.308;2023-01-10T10:02:33;7.85;82.29
66582;SHT31;53438;48.898;2.308;2023-01-10T10:07:45;7.79;82.86
66582;SHT31;53438;48.898;2.308;2023-01-10T10:10:19;7.85;82.64
66582;SHT31;53438;48.898;2.308;2023-01-10T10:12:59;7.89;82.49
66582;SHT31;53438;48.898;2.308;2023-01-10T10:18:31;7.79;82.86
66582;SHT31;53438;48.898;2.308;2023-01-10T10:24:02;7.84;83.49
66582;SHT31;53438;48.898;2.308;2023-01-10T10:26:35;7.81;83.32
66582;SHT31;53438;48.898;2.308;2023-01-10T10:32:18;7.89;83.28
66582;SHT31;53438;48.898;2.308;2023-01-10T10:35:00;8.05;82.53
66582;SHT31;53438;48.898;2.308;2023-01-10T10:37:29;7.95;82.98
66582;SHT31;53438;48.898;2.308;2023-01-10T10:42:40;8.10;82.45
66582;SHT31;53438;48.898;2.308;2023-01-10T10:47:36;8.12;82.26
66582;SHT31;53438;48.898;2.308;2023-01-10T10:52:39;8.05;82.87
66582;SHT31;53438;48.898;2.308;2023-01-10T10:55:06;8.10;82.86
66582;SHT31;53438;48.898;2.308;2023-01-10T10:57:37;8.16;82.90
66582;SHT31;53438;48.898;2.308;2023-01-10T11:00:04;8.16;82.86
66582;SHT31;53438;48.898;2.308;2023-01-10T11:02:37;8.19;82.81
66582;SHT31;53438;48.898;2.308;2023-01-10T11:05:06;8.05;83.39
66582;SHT31;53438;48.898;2.308;2023-01-10T11:07:37;8.08;83.36
66582;SHT31;53438;48.898;2.308;2023-01-10T11:10:08;8.15;83.24
66582;SHT31;53438;48.898;2.308;2023-01-10T11:12:53;8.16;82.83
66582;SHT31;53438;48.898;2.308;2023-01-10T11:15:41;8.09;82.99
66582;SHT31;53438;48.898;2.308;2023-01-10T11:20:38;8.21;82.65
66582;SHT31;53438;48.898;2.308;2023-01-10T11:23:10;8.25;82.84
66582;SHT31;53438;48.898;2.308;2023-01-10T11:25:35;8.13;82.94
66582;SHT31;53438;48.898;2.308;2023-01-10T11:28:02;8.24;82.97
66582;SHT31;53438;48.898;2.308;2023-01-10T11:30:30;8.09;83.32
66582;SHT31;53438;48.898;2.308;2023-01-10T11:32:59;8.09;83.38
66582;SHT31;53438;48.898;2.308;2023-01-10T11:35:58;8.29;82.76
66582;SHT31;53438;48.898;2.308;2023-01-10T11:38:26;8.36;82.85
66582;SHT31;53438;48.898;2.308;2023-01-10T11:41:22;8.33;83.00
66582;SHT31;53438;48.898;2.308;2023-01-10T11:43:49;8.36;82.99
66582;SHT31;53438;48.898;2.308;2023-01-10T11:46:16;8.43;83.21
66582;SHT31;53438;48.898;2.308;2023-01-10T11:48:49;8.28;83.66
66582;SHT31;53438;48.898;2.308;2023-01-10T11:51:25;8.43;83.29
66582;SHT31;53438;48.898;2.308;2023-01-10T11:54:02;8.30;83.67
66582;SHT31;53438;48.898;2.308;2023-01-10T11:56:31;8.30;83.92
66582;SHT31;53438;48.898;2.308;2023-01-10T11:58:59;8.39;83.68
66582;SHT31;53438;48.898;2.308;2023-01-10T12:01:39;8.43;83.66
66582;SHT31;53438;48.898;2.308;2023-01-10T12:04:05;8.40;83.79
66582;SHT31;53438;48.898;2.308;2023-01-10T12:06:31;8.36;83.97
66582;SHT31;53438;48.898;2.308;2023-01-10T12:08:56;8.52;83.72
66582;SHT31;53438;48.898;2.308;2023-01-10T12:11:28;8.50;83.60
66582;SHT31;53438;48.898;2.308;2023-01-10T12:14:00;8.50;83.82
66582;SHT31;53438;48.898;2.308;2023-01-10T12:18:56;8.40;83.89
66582;SHT31;53438;48.898;2.308;2023-01-10T12:21:41;8.42;83.87
66582;SHT31;53438;48.898;2.308;2023-01-10T12:26:42;8.52;84.04
66582;SHT31;53438;48.898;2.308;2023-01-10T12:29:15;8.53;83.94
66582;SHT31;53438;48.898;2.308;2023-01-10T12:31:41;8.61;83.92
66582;SHT31;53438;48.898;2.308;2023-01-10T12:34:15;8.68;83.80
66582;SHT31;53438;48.898;2.308;2023-01-10T12:39:21;8.66;84.23
66582;SHT31;53438;48.898;2.308;2023-01-10T12:44:57;8.56;84.62
66582;SHT31;53438;48.898;2.308;2023-01-10T12:47:53;8.54;85.21
66582;SHT31;53438;48.898;2.308;2023-01-10T12:50:25;8.50;85.13
66582;SHT31;53438;48.898;2.308;2023-01-10T12:55:43;8.64;85.05
66582;SHT31;53438;48.898;2.308;2023-01-10T12:58:21;8.70;84.88
66582;SHT31;53438;48.898;2.308;2023-01-10T13:00:57;8.68;85.00
66582;SHT31;53438;48.898;2.308;2023-01-10T13:03:27;8.78;85.03
66582;SHT31;53438;48.898;2.308;2023-01-10T13:05:56;8.76;84.79
66582;SHT31;53438;48.898;2.308;2023-01-10T13:08:24;8.71;85.38
66582;SHT31;53438;48.898;2.308;2023-01-10T13:10:52;8.71;85.33
66582;SHT31;53438;48.898;2.308;2023-01-10T13:13:44;8.81;85.07
66582;SHT31;53438;48.898;2.308;2023-01-10T13:16:44;8.73;85.27
66582;SHT31;53438;48.898;2.308;2023-01-10T13:21:41;8.78;85.30
66582;SHT31;53438;48.898;2.308;2023-01-10T13:29:16;8.81;85.33
66582;SHT31;53438;48.898;2.308;2023-01-10T13:31:43;8.87;85.32
66582;SHT31;53438;48.898;2.308;2023-01-10T13:34:13;9.01;85.21
66582;SHT31;53438;48.898;2.308;2023-01-10T13:36:48;9.04;85.26
66582;SHT31;53438;48.898;2.308;2023-01-10T13:39:31;8.94;85.70
66582;SHT31;53438;48.898;2.308;2023-01-10T13:52:49;9.10;85.70
66582;SHT31;53438;48.898;2.308;2023-01-10T14:00:50;9.04;86.13
66582;SHT31;53438;48.898;2.308;2023-01-10T14:09:02;9.10;86.48
66582;SHT31;53438;48.898;2.308;2023-01-10T14:13:58;9.14;86.32
66582;SHT31;53438;48.898;2.308;2023-01-10T14:16:39;9.14;86.33
66582;SHT31;53438;48.898;2.308;2023-01-10T14:19:17;9.24;86.21
66582;SHT31;53438;48.898;2.308;2023-01-10T14:21:45;9.24;86.27
66582;SHT31;53438;48.898;2.308;2023-01-10T14:24:39;9.28;86.05
66582;SHT31;53438;48.898;2.308;2023-01-10T14:27:10;9.34;85.94
66582;SHT31;53438;48.898;2.308;2023-01-10T14:29:36;9.35;86.02
66582;SHT31;53438;48.898;2.308;2023-01-10T14:32:05;9.35;86.00
66582;SHT31;53438;48.898;2.308;2023-01-10T14:34:40;9.28;86.19
66582;SHT31;53438;48.898;2.308;2023-01-10T14:37:28;9.34;86.12
66582;SHT31;53438;48.898;2.308;2023-01-10T14:39:56;9.42;85.86
66582;SHT31;53438;48.898;2.308;2023-01-10T14:42:25;9.50;86.10
66582;SHT31;53438;48.898;2.308;2023-01-10T14:47:38;9.47;86.16
66582;SHT31;53438;48.898;2.308;2023-01-10T14:50:04;9.55;85.98
66582;SHT31;53438;48.898;2.308;2023-01-10T14:52:33;9.56;86.15
66582;SHT31;53438;48.898;2.308;2023-01-10T14:57:34;9.73;85.69
66582;SHT31;53438;48.898;2.308;2023-01-10T15:00:11;9.67;85.83
66582;SHT31;53438;48.898;2.308;2023-01-10T15:02:42;9.65;85.92
66582;SHT31;53438;48.898;2.308;2023-01-10T15:07:41;9.76;85.79
66582;SHT31;53438;48.898;2.308;2023-01-10T15:10:40;9.80;86.08
66582;SHT31;53438;48.898;2.308;2023-01-10T15:13:05;9.73;86.34
66582;SHT31;53438;48.898;2.308;2023-01-10T15:15:36;9.73;86.07
66582;SHT31;53438;48.898;2.308;2023-01-10T15:18:19;9.77;86.60
66582;SHT31;53438;48.898;2.308;2023-01-10T15:20:46;9.73;86.62
66582;SHT31;53438;48.898;2.308;2023-01-10T15:23:13;9.66;87.21
66582;SHT31;53438;48.898;2.308;2023-01-10T15:25:39;9.73;86.91
66582;SHT31;53438;48.898;2.308;2023-01-10T15:28:16;9.69;87.01
66582;SHT31;53438;48.898;2.308;2023-01-10T15:30:43;9.73;87.07
66582;SHT31;53438;48.898;2.308;2023-01-10T15:33:18;9.70;87.31
66582;SHT31;53438;48.898;2.308;2023-01-10T15:35:46;9.77;86.85
66582;SHT31;53438;48.898;2.308;2023-01-10T15:38:14;9.79;86.95
66582;SHT31;53438;48.898;2.308;2023-01-10T15:40:41;9.79;86.88
66582;SHT31;53438;48.898;2.308;2023-01-10T15:45:36;9.90;86.58
66582;SHT31;53438;48.898;2.308;2023-01-10T15:48:04;9.96;86.84
66582;SHT31;53438;48.898;2.308;2023-01-10T15:50:37;9.96;86.54
66582;SHT31;53438;48.898;2.308;2023-01-10T15:53:10;10.06;86.52
66582;SHT31;53438;48.898;2.308;2023-01-10T15:55:44;9.96;86.76
66582;SHT31;53438;48.898;2.308;2023-01-10T15:58:29;9.93;86.94
66582;SHT31;53438;48.898;2.308;2023-01-10T16:00:56;9.94;86.70
66582;SHT31;53438;48.898;2.308;2023-01-10T16:05:53;10.03;86.91
66582;SHT31;53438;48.898;2.308;2023-01-10T16:08:23;9.94;86.79
66582;SHT31;53438;48.898;2.308;2023-01-10T16:10:54;10.04;87.05
66582;SHT31;53438;48.898;2.308;2023-01-10T16:13:21;10.07;87.05
66582;SHT31;53438;48.898;2.308;2023-01-10T16:15:55;10.01;87.07
66582;SHT31;53438;48.898;2.308;2023-01-10T16:18:21;10.06;86.92
66582;SHT31;53438;48.898;2.308;2023-01-10T16:20:48;10.07;86.98
66582;SHT31;53438;48.898;2.308;2023-01-10T16:23:20;10.07;86.99
66582;SHT31;53438;48.898;2.308;2023-01-10T16:25:52;10.10;87.02
66582;SHT31;53438;48.898;2.308;2023-01-10T16:28:19;10.10;86.89
66582;SHT31;53438;48.898;2.308;2023-01-10T16:30:45;10.13;86.95
66582;SHT31;53438;48.898;2.308;2023-01-10T16:33:13;10.16;87.06
66582;SHT31;53438;48.898;2.308;2023-01-10T16:35:46;10.21;87.12
66582;SHT31;53438;48.898;2.308;2023-01-10T16:38:12;10.20;87.19
66582;SHT31;53438;48.898;2.308;2023-01-10T16:40:43;10.16;86.94
66582;SHT31;53438;48.898;2.308;2023-01-10T16:43:09;10.16;87.20
66582;SHT31;53438;48.898;2.308;2023-01-10T16:45:47;10.18;87.19
66582;SHT31;53438;48.898;2.308;2023-01-10T16:48:13;10.27;86.93
66582;SHT31;53438;48.898;2.308;2023-01-10T16:50:40;10.21;87.14
66582;SHT31;53438;48.898;2.308;2023-01-10T16:53:06;10.21;87.06
66582;SHT31;53438;48.898;2.308;2023-01-10T16:58:03;10.30;87.19
66582;SHT31;53438;48.898;2.308;2023-01-10T17:00:28;10.30;87.13
66582;SHT31;53438;48.898;2.308;2023-01-10T17:02:54;10.31;86.98
66582;SHT31;53438;48.898;2.308;2023-01-10T17:05:21;10.38;87.05
66582;SHT31;53438;48.898;2.308;2023-01-10T17:07:47;10.38;86.81
66582;SHT31;53438;48.898;2.308;2023-01-10T17:10:13;10.38;86.79
66582;SHT31;53438;48.898;2.308;2023-01-10T17:12:39;10.44;86.98
66582;SHT31;53438;48.898;2.308;2023-01-10T17:15:09;10.38;86.92
66582;SHT31;53438;48.898;2.308;2023-01-10T17:17:35;10.49;87.03
66582;SHT31;53438;48.898;2.308;2023-01-10T17:20:01;10.56;86.77
66582;SHT31;53438;48.898;2.308;2023-01-10T17:22:30;10.54;86.68
66582;SHT31;53438;48.898;2.308;2023-01-10T17:24:55;10.55;86.68
66582;SHT31;53438;48.898;2.308;2023-01-10T17:27:21;10.58;86.77
66582;SHT31;53438;48.898;2.308;2023-01-10T17:29:46;10.56;86.73
66582;SHT31;53438;48.898;2.308;2023-01-10T17:32:12;10.54;86.71
66582;SHT31;53438;48.898;2.308;2023-01-10T17:34:37;10.58;86.75
66582;SHT31;53438;48.898;2.308;2023-01-10T17:37:03;10.62;86.69
66582;SHT31;53438;48.898;2.308;2023-01-10T17:39:29;10.61;86.92
66582;SHT31;53438;48.898;2.308;2023-01-10T17:41:54;10.58;86.82
66582;SHT31;53438;48.898;2.308;2023-01-10T17:44:20;10.77;86.48
66582;SHT31;53438;48.898;2.308;2023-01-10T17:46:45;10.71;86.32
66582;SHT31;53438;48.898;2.308;2023-01-10T17:49:10;10.69;86.43
66582;SHT31;53438;48.898;2.308;2023-01-10T17:51:36;10.68;86.75
66582;SHT31;53438;48.898;2.308;2023-01-10T17:54:02;10.71;86.63
66582;SHT31;53438;48.898;2.308;2023-01-10T17:56:27;10.66;86.83
66582;SHT31;53438;48.898;2.308;2023-01-10T17:58:53;10.65;86.72
66582;SHT31;53438;48.898;2.308;2023-01-10T18:01:20;10.73;86.91
66582;SHT31;53438;48.898;2.308;2023-01-10T18:03:46;10.79;86.97
66582;SHT31;53438;48.898;2.308;2023-01-10T18:06:14;10.75;86.79
66582;SHT31;53438;48.898;2.308;2023-01-10T18:08:39;10.77;86.72
66582;SHT31;53438;48.898;2.308;2023-01-10T18:11:05;10.82;86.64
66582;SHT31;53438;48.898;2.308;2023-01-10T18:13:30;10.85;86.74
66582;SHT31;53438;48.898;2.308;2023-01-10T18:15:56;10.85;86.80
66582;SHT31;53438;48.898;2.308;2023-01-10T18:18:22;10.86;86.83
66582;SHT31;53438;48.898;2.308;2023-01-10T18:20:49;10.95;87.08
66582;SHT31;53438;48.898;2.308;2023-01-10T18:23:17;10.92;86.78
66582;SHT31;53438;48.898;2.308;2023-01-10T18:28:17;10.92;86.88
66582;SHT31;53438;48.898;2.308;2023-01-10T18:30:42;10.97;86.69
66582;SHT31;53438;48.898;2.308;2023-01-10T18:33:07;10.97;86.63
66582;SHT31;53438;48.898;2.308;2023-01-10T18:35:33;11.09;86.85
66582;SHT31;53438;48.898;2.308;2023-01-10T18:37:58;11.09;86.63
66582;SHT31;53438;48.898;2.308;2023-01-10T18:40:25;11.19;86.52
66582;SHT31;53438;48.898;2.308;2023-01-10T18:42:50;11.17;86.58
66582;SHT31;53438;48.898;2.308;2023-01-10T18:45:19;11.17;86.63
66582;SHT31;53438;48.898;2.308;2023-01-10T18:47:49;11.22;86.65
66582;SHT31;53438;48.898;2.308;2023-01-10T18:50:16;11.23;86.37
66582;SHT31;53438;48.898;2.308;2023-01-10T18:52:41;11.22;86.70
66582;SHT31;53438;48.898;2.308;2023-01-10T18:55:07;11.28;86.46
66582;SHT31;53438;48.898;2.308;2023-01-10T18:57:32;11.30;86.68
66582;SHT31;53438;48.898;2.308;2023-01-10T18:59:58;11.30;86.66
66582;SHT31;53438;48.898;2.308;2023-01-10T19:02:23;11.31;86.62
66582;SHT31;53438;48.898;2.308;2023-01-10T19:04:48;11.28;86.47
66582;SHT31;53438;48.898;2.308;2023-01-10T19:07:15;11.43;86.86
66582;SHT31;53438;48.898;2.308;2023-01-10T19:09:41;11.43;86.79
66582;SHT31;53438;48.898;2.308;2023-01-10T19:12:06;11.40;86.64
66582;SHT31;53438;48.898;2.308;2023-01-10T19:14:32;11.40;86.67
66582;SHT31;53438;48.898;2.308;2023-01-10T19:16:58;11.38;86.81
66582;SHT31;53438;48.898;2.308;2023-01-10T19:19:23;11.33;86.69
66582;SHT31;53438;48.898;2.308;2023-01-10T19:21:49;11.41;86.58
66582;SHT31;53438;48.898;2.308;2023-01-10T19:24:20;11.36;86.54
66582;SHT31;53438;48.898;2.308;2023-01-10T19:26:46;11.36;86.56
66582;SHT31;53438;48.898;2.308;2023-01-10T19:29:12;11.47;86.53
66582;SHT31;53438;48.898;2.308;2023-01-10T19:31:38;11.48;86.37
66582;SHT31;53438;48.898;2.308;2023-01-10T19:34:03;11.51;86.44
66582;SHT31;53438;48.898;2.308;2023-01-10T19:36:29;11.58;86.56
66582;SHT31;53438;48.898;2.308;2023-01-10T19:38:58;11.57;86.76
66582;SHT31;53438;48.898;2.308;2023-01-10T19:41:26;11.53;86.36
66582;SHT31;53438;48.898;2.308;2023-01-10T19:43:59;11.48;86.51
66582;SHT31;53438;48.898;2.308;2023-01-10T19:46:26;11.54;87.06
66582;SHT31;53438;48.898;2.308;2023-01-10T19:48:54;11.45;86.67
66582;SHT31;53438;48.898;2.308;2023-01-10T19:51:19;11.54;87.26
66582;SHT31;53438;48.898;2.308;2023-01-10T19:53:45;11.70;87.08
66582;SHT31;53438;48.898;2.308;2023-01-10T19:56:14;11.54;87.01
66582;SHT31;53438;48.898;2.308;2023-01-10T19:58:43;11.51;87.04
66582;SHT31;53438;48.898;2.308;2023-01-10T20:01:11;11.51;86.94
66582;SHT31;53438;48.898;2.308;2023-01-10T20:03:37;11.51;87.16
66582;SHT31;53438;48.898;2.308;2023-01-10T20:06:05;11.48;86.96
66582;SHT31;53438;48.898;2.308;2023-01-10T20:08:32;11.47;87.09
66582;SHT31;53438;48.898;2.308;2023-01-10T20:11:04;11.43;87.07
66582;SHT31;53438;48.898;2.308;2023-01-10T20:13:32;11.44;87.10
66582;SHT31;53438;48.898;2.308;2023-01-10T20:15:58;11.44;87.09
66582;SHT31;53438;48.898;2.308;2023-01-10T20:18:23;11.58;86.97
66582;SHT31;53438;48.898;2.308;2023-01-10T20:20:48;11.54;86.96